createdAt,value
2023-06-04T00:00:46.085Z,25.00
2023-06-04T00:01:46.092Z,25.00
2023-06-04T00:02:46.151Z,25.00
2023-06-04T00:03:46.378Z,0.00
2023-06-04T00:04:46.342Z,0.00
2023-06-04T00:05:46.161Z,0.00
2023-06-04T00:06:46.167Z,0.00
2023-06-04T00:07:46.191Z,0.00
2023-06-04T00:08:46.210Z,2.01
2023-06-04T00:09:46.245Z,15.64
2023-06-04T00:10:46.280Z,25.00
2023-06-04T00:11:46.309Z,25.00
2023-06-04T00:12:46.316Z,25.58
2023-06-04T00:13:46.332Z,25.00
2023-06-04T00:14:46.366Z,26.92
2023-06-04T00:15:46.407Z,25.92
2023-06-04T00:16:46.548Z,25.00
2023-06-04T00:17:46.510Z,25.73
2023-06-04T00:18:46.471Z,27.08
2023-06-04T00:19:46.496Z,25.09
2023-06-04T00:20:46.537Z,27.26
2023-06-04T00:21:46.573Z,30.00
2023-06-04T00:22:46.607Z,25.12
2023-06-04T00:23:46.643Z,27.02
2023-06-04T00:24:46.660Z,25.00
2023-06-04T00:25:46.669Z,27.09
2023-06-04T00:26:46.699Z,27.31
2023-06-04T00:27:46.720Z,25.89
2023-06-04T00:28:46.759Z,25.00
2023-06-04T00:29:46.776Z,26.96
2023-06-04T00:30:46.810Z,28.25
2023-06-04T00:31:46.922Z,25.94
2023-06-04T00:32:46.912Z,28.24
2023-06-04T00:33:46.898Z,25.37
2023-06-04T00:34:46.926Z,28.05
2023-06-04T00:35:46.937Z,27.20
2023-06-04T00:36:46.964Z,26.90
2023-06-04T00:37:46.993Z,25.12
2023-06-04T00:38:47.054Z,29.21
2023-06-04T00:39:47.045Z,25.00
2023-06-04T00:40:47.096Z,26.70
2023-06-04T00:41:47.115Z,27.53
2023-06-04T00:42:47.166Z,26.30
2023-06-04T00:43:47.179Z,26.54
2023-06-04T00:44:47.195Z,28.44
2023-06-04T00:45:47.259Z,29.72
2023-06-04T00:46:47.257Z,24.89
2023-06-04T00:47:47.352Z,28.38
2023-06-04T00:48:47.332Z,30.24
2023-06-04T00:49:47.358Z,26.25
2023-06-04T00:50:47.394Z,25.95
2023-06-04T00:51:47.426Z,27.36
2023-06-04T00:52:47.493Z,28.24
2023-06-04T00:53:47.519Z,29.28
2023-06-04T00:54:47.515Z,28.15
2023-06-04T00:55:47.585Z,25.89
2023-06-04T00:56:47.582Z,26.31
2023-06-04T00:57:47.618Z,29.21
2023-06-04T00:58:47.740Z,27.87
2023-06-04T00:59:47.696Z,29.43
2023-06-04T01:00:47.787Z,30.30
2023-06-04T01:01:47.875Z,28.32
2023-06-04T01:02:47.808Z,29.91
2023-06-04T01:03:47.874Z,29.24
2023-06-04T01:04:47.877Z,29.97
2023-06-04T01:05:47.906Z,27.36
2023-06-04T01:06:47.944Z,28.38
2023-06-04T01:07:47.985Z,31.49
2023-06-04T01:08:48.009Z,28.19
2023-06-04T01:09:48.062Z,25.00
2023-06-04T01:10:48.068Z,28.07
2023-06-04T01:11:48.109Z,26.61
2023-06-04T01:12:48.134Z,28.15
2023-06-04T01:13:48.566Z,26.59
2023-06-04T01:14:48.225Z,25.81
2023-06-04T01:15:48.228Z,27.56
2023-06-04T01:16:48.328Z,27.78
2023-06-04T01:17:48.471Z,32.32
2023-06-04T01:18:48.329Z,25.80
2023-06-04T01:19:48.349Z,29.15
2023-06-04T01:20:48.672Z,25.90
2023-06-04T01:21:48.411Z,27.69
2023-06-04T01:22:48.451Z,26.66
2023-06-04T01:23:48.526Z,28.64
2023-06-04T01:24:48.507Z,28.77
2023-06-04T01:25:48.548Z,30.00
2023-06-04T01:26:48.574Z,30.19
2023-06-04T01:27:48.615Z,30.85
2023-06-04T01:28:48.782Z,27.23
2023-06-04T01:29:48.668Z,29.45
2023-06-04T01:30:48.828Z,26.80
2023-06-04T01:31:48.805Z,28.00
2023-06-04T01:32:48.890Z,25.62
2023-06-04T01:33:48.827Z,27.68
2023-06-04T01:34:48.888Z,29.36
2023-06-04T01:35:48.887Z,29.54
2023-06-04T01:36:48.925Z,28.10
2023-06-04T01:37:48.961Z,28.96
2023-06-04T01:38:48.990Z,29.99
2023-06-04T01:39:49.040Z,29.63
2023-06-04T01:40:49.086Z,31.00
2023-06-04T01:41:49.091Z,27.67
2023-06-04T01:42:49.126Z,26.11
2023-06-04T01:43:49.162Z,27.72
2023-06-04T01:44:49.202Z,26.85
2023-06-04T01:45:49.244Z,25.17
2023-06-04T01:46:49.313Z,26.75
2023-06-04T01:47:49.332Z,28.97
2023-06-04T01:48:49.344Z,28.92
2023-06-04T01:49:49.372Z,30.08
2023-06-04T01:50:49.408Z,31.65
2023-06-04T01:51:49.445Z,25.00
2023-06-04T01:52:49.474Z,30.50
2023-06-04T01:53:49.520Z,31.29
2023-06-04T01:54:49.560Z,27.49
2023-06-04T01:55:49.601Z,28.89
2023-06-04T01:56:49.640Z,26.56
2023-06-04T01:57:49.682Z,30.44
2023-06-04T01:58:49.731Z,28.60
2023-06-04T01:59:49.765Z,29.47
2023-06-04T02:00:49.801Z,29.28
2023-06-04T02:01:49.900Z,31.48
2023-06-04T02:02:49.957Z,26.51
2023-06-04T02:03:49.965Z,26.26
2023-06-04T02:04:49.956Z,26.87
2023-06-04T02:05:49.994Z,27.88
2023-06-04T02:06:50.036Z,26.26
2023-06-04T02:07:50.074Z,31.55
2023-06-04T02:08:50.114Z,27.70
2023-06-04T02:09:50.159Z,27.41
2023-06-04T02:10:50.189Z,27.41
2023-06-04T02:11:50.217Z,26.82
2023-06-04T02:12:50.255Z,31.06
2023-06-04T02:13:50.281Z,29.96
2023-06-04T02:14:50.320Z,29.30
2023-06-04T02:15:50.362Z,28.23
2023-06-04T02:16:50.422Z,25.72
2023-06-04T02:17:50.427Z,30.12
2023-06-04T02:18:50.428Z,25.85
2023-06-04T02:19:50.469Z,27.90
2023-06-04T02:20:50.523Z,28.03
2023-06-04T02:21:50.528Z,27.06
2023-06-04T02:22:50.579Z,28.37
2023-06-04T02:23:50.653Z,25.72
2023-06-04T02:24:50.624Z,31.68
2023-06-04T02:25:50.996Z,26.67
2023-06-04T02:26:50.707Z,31.41
2023-06-04T02:27:50.705Z,29.42
2023-06-04T02:28:50.748Z,25.93
2023-06-04T02:29:50.762Z,29.81
2023-06-04T02:30:50.798Z,26.24
2023-06-04T02:31:50.868Z,31.00
2023-06-04T02:32:52.953Z,28.59
2023-06-04T02:33:50.858Z,31.37
2023-06-04T02:34:50.853Z,28.31
2023-06-04T02:35:50.846Z,28.22
2023-06-04T02:36:50.827Z,27.46
2023-06-04T02:37:50.902Z,28.21
2023-06-04T02:38:50.809Z,29.16
2023-06-04T02:39:50.786Z,30.65
2023-06-04T02:40:50.765Z,27.26
2023-06-04T02:41:50.754Z,29.35
2023-06-04T02:42:50.741Z,28.99
2023-06-04T02:43:50.703Z,27.47
2023-06-04T02:44:50.678Z,29.48
2023-06-04T02:45:50.813Z,26.28
2023-06-04T02:46:50.653Z,29.58
2023-06-04T02:47:50.660Z,27.71
2023-06-04T02:48:50.623Z,26.14
2023-06-04T02:49:50.608Z,31.03
2023-06-04T02:50:50.582Z,28.01
2023-06-04T02:51:50.562Z,29.30
2023-06-04T02:52:50.546Z,26.17
2023-06-04T02:53:50.544Z,31.31
2023-06-04T02:54:50.518Z,29.78
2023-06-04T02:55:50.505Z,29.81
2023-06-04T02:56:50.475Z,25.00
2023-06-04T02:57:50.456Z,27.72
2023-06-04T02:58:50.432Z,27.44
2023-06-04T02:59:50.423Z,26.76
2023-06-04T03:00:50.408Z,25.75
2023-06-04T03:01:50.415Z,30.73
2023-06-04T03:02:50.550Z,29.76
2023-06-04T03:03:50.527Z,31.15
2023-06-04T03:04:50.508Z,28.27
2023-06-04T03:05:50.559Z,28.74
2023-06-04T03:06:50.610Z,28.56
2023-06-04T03:07:50.647Z,28.66
2023-06-04T03:08:50.702Z,29.33
2023-06-04T03:09:50.765Z,29.35
2023-06-04T03:10:50.786Z,28.12
2023-06-04T03:11:50.971Z,27.58
2023-06-04T03:12:50.887Z,31.68
2023-06-04T03:13:50.990Z,27.10
2023-06-04T03:14:50.990Z,28.88
2023-06-04T03:15:51.050Z,26.68
2023-06-04T03:16:51.076Z,27.12
2023-06-04T03:17:51.188Z,28.36
2023-06-04T03:18:51.159Z,25.53
2023-06-04T03:19:51.200Z,31.86
2023-06-04T03:20:51.244Z,31.22
2023-06-04T03:21:51.270Z,31.78
2023-06-04T03:22:51.314Z,28.34
2023-06-04T03:23:51.379Z,28.60
2023-06-04T03:24:51.400Z,28.55
2023-06-04T03:25:51.442Z,29.24
2023-06-04T03:26:51.490Z,30.72
2023-06-04T03:27:51.534Z,26.27
2023-06-04T03:28:51.559Z,29.26
2023-06-04T03:29:51.602Z,27.96
2023-06-04T03:30:51.692Z,31.02
2023-06-04T03:31:51.687Z,27.43
2023-06-04T03:32:51.773Z,26.09
2023-06-04T03:33:51.760Z,28.01
2023-06-04T03:34:51.799Z,29.30
2023-06-04T03:35:51.854Z,27.91
2023-06-04T03:36:51.880Z,26.46
2023-06-04T03:37:51.960Z,30.62
2023-06-04T03:38:51.981Z,30.27
2023-06-04T03:39:51.993Z,29.60
2023-06-04T03:40:52.051Z,30.09
2023-06-04T03:41:52.074Z,26.75
2023-06-04T03:42:52.149Z,27.80
2023-06-04T03:43:52.155Z,29.64
2023-06-04T03:44:52.206Z,27.85
2023-06-04T03:45:52.239Z,28.96
2023-06-04T03:46:52.303Z,28.11
2023-06-04T03:47:52.427Z,30.77
2023-06-04T03:48:52.362Z,28.00
2023-06-04T03:49:52.405Z,27.72
2023-06-04T03:50:52.473Z,26.63
2023-06-04T03:51:52.476Z,26.71
2023-06-04T03:52:52.515Z,25.10
2023-06-04T03:53:52.555Z,26.94
2023-06-04T03:54:52.595Z,28.14
2023-06-04T03:55:52.643Z,32.76
2023-06-04T03:56:52.687Z,29.82
2023-06-04T03:57:52.725Z,30.14
2023-06-04T03:58:52.771Z,29.11
2023-06-04T03:59:52.819Z,32.50
2023-06-04T04:00:52.859Z,26.35
2023-06-04T04:01:52.956Z,32.83
2023-06-04T04:02:53.034Z,33.70
2023-06-04T04:03:53.138Z,25.36
2023-06-04T04:04:53.019Z,30.26
2023-06-04T04:05:53.063Z,30.81
2023-06-04T04:06:53.103Z,31.48
2023-06-04T04:07:53.145Z,28.96
2023-06-04T04:08:53.193Z,31.64
2023-06-04T04:09:53.235Z,25.00
2023-06-04T04:10:53.287Z,26.80
2023-06-04T04:11:53.316Z,28.37
2023-06-04T04:12:53.431Z,31.18
2023-06-04T04:13:53.456Z,28.21
2023-06-04T04:14:53.456Z,28.57
2023-06-04T04:15:53.519Z,28.85
2023-06-04T04:16:53.583Z,26.61
2023-06-04T04:17:53.660Z,28.36
2023-06-04T04:18:53.648Z,26.94
2023-06-04T04:19:53.693Z,25.80
2023-06-04T04:20:53.742Z,27.46
2023-06-04T04:21:53.800Z,29.22
2023-06-04T04:22:53.844Z,30.11
2023-06-04T04:23:53.907Z,29.99
2023-06-04T04:24:53.927Z,25.29
2023-06-04T04:25:53.967Z,28.47
2023-06-04T04:26:54.039Z,26.42
2023-06-04T04:27:54.057Z,26.55
2023-06-04T04:28:54.107Z,28.27
2023-06-04T04:29:54.154Z,30.22
2023-06-04T04:30:54.213Z,28.86
2023-06-04T04:31:54.243Z,28.54
2023-06-04T04:32:54.321Z,29.25
2023-06-04T04:33:54.329Z,28.95
2023-06-04T04:34:54.380Z,27.92
2023-06-04T04:35:54.410Z,27.67
2023-06-04T04:36:54.478Z,30.21
2023-06-04T04:37:54.509Z,29.15
2023-06-04T04:38:54.567Z,29.91
2023-06-04T04:39:54.598Z,28.88
2023-06-04T04:40:54.670Z,29.57
2023-06-04T04:41:54.708Z,30.64
2023-06-04T04:42:54.792Z,30.98
2023-06-04T04:43:54.809Z,28.81
2023-06-04T04:44:54.851Z,26.14
2023-06-04T04:45:54.900Z,30.89
2023-06-04T04:46:54.933Z,30.33
2023-06-04T04:47:55.050Z,31.34
2023-06-04T04:48:55.014Z,29.59
2023-06-04T04:49:55.067Z,29.21
2023-06-04T04:50:55.120Z,28.86
2023-06-04T04:51:55.154Z,26.72
2023-06-04T04:52:55.199Z,28.72
2023-06-04T04:53:55.242Z,26.34
2023-06-04T04:54:55.287Z,27.74
2023-06-04T04:55:55.346Z,29.53
2023-06-04T04:57:11.657Z,29.28
2023-06-04T04:57:55.359Z,29.75
2023-06-04T04:58:55.347Z,30.33
2023-06-04T04:59:55.344Z,30.75
2023-06-04T05:00:55.322Z,27.70
2023-06-04T05:01:55.360Z,26.77
2023-06-04T05:02:55.326Z,28.75
2023-06-04T05:03:55.356Z,25.74
2023-06-04T05:04:55.278Z,29.24
2023-06-04T05:05:55.273Z,25.00
2023-06-04T05:06:55.256Z,26.46
2023-06-04T05:07:55.244Z,30.63
2023-06-04T05:08:55.208Z,30.74
2023-06-04T05:09:55.187Z,25.35
2023-06-04T05:10:55.202Z,30.66
2023-06-04T05:11:55.171Z,27.11
2023-06-04T05:12:55.154Z,31.44
2023-06-04T05:13:55.142Z,29.10
2023-06-04T05:14:55.139Z,27.29
2023-06-04T05:15:55.126Z,27.59
2023-06-04T05:16:55.214Z,29.37
2023-06-04T05:17:55.172Z,27.36
2023-06-04T05:18:55.080Z,28.06
2023-06-04T05:19:55.062Z,25.30
2023-06-04T05:20:55.068Z,26.11
2023-06-04T05:21:55.042Z,28.61
2023-06-04T05:22:55.012Z,30.23
2023-06-04T05:23:55.876Z,30.63
2023-06-04T05:24:54.987Z,29.95
2023-06-04T05:25:55.040Z,28.93
2023-06-04T05:26:55.068Z,31.30
2023-06-04T05:27:55.116Z,26.61
2023-06-04T05:28:57.323Z,29.25
2023-06-04T05:29:55.148Z,29.47
2023-06-04T05:30:55.133Z,29.69
2023-06-04T05:31:55.190Z,29.65
2023-06-04T05:32:55.187Z,28.04
2023-06-04T05:33:55.115Z,24.39
2023-06-04T05:34:55.119Z,27.42
2023-06-04T05:35:55.119Z,28.40
2023-06-04T05:36:55.083Z,25.27
2023-06-04T05:37:55.282Z,27.30
2023-06-04T05:38:55.061Z,27.19
2023-06-04T05:39:55.050Z,28.64
2023-06-04T05:40:55.027Z,32.85
2023-06-04T05:41:55.017Z,30.70
2023-06-04T05:42:55.004Z,26.72
2023-06-04T05:43:55.027Z,28.46
2023-06-04T05:44:55.080Z,27.38
2023-06-04T05:45:55.204Z,29.10
2023-06-04T05:46:55.162Z,29.89
2023-06-04T05:47:55.309Z,28.37
2023-06-04T05:48:55.241Z,25.68
2023-06-04T05:49:55.274Z,26.71
2023-06-04T05:50:55.330Z,27.48
2023-06-04T05:51:55.353Z,25.69
2023-06-04T05:52:55.394Z,26.62
2023-06-04T05:53:55.464Z,27.71
2023-06-04T05:54:55.466Z,27.59
2023-06-04T05:55:55.526Z,29.41
2023-06-04T05:56:55.544Z,27.60
2023-06-04T05:57:55.586Z,25.00
2023-06-04T05:58:55.639Z,27.46
2023-06-04T05:59:55.665Z,27.76
2023-06-04T06:00:55.716Z,27.39
2023-06-04T06:01:55.801Z,27.38
2023-06-04T06:02:55.848Z,26.94
2023-06-04T06:03:55.889Z,26.00
2023-06-04T06:04:55.849Z,30.91
2023-06-04T06:05:55.886Z,27.34
2023-06-04T06:06:55.918Z,25.68
2023-06-04T06:07:55.986Z,26.80
2023-06-04T06:08:55.988Z,25.89
2023-06-04T06:09:56.029Z,27.29
2023-06-04T06:10:56.057Z,28.93
2023-06-04T06:11:56.099Z,28.24
2023-06-04T06:12:56.147Z,28.21
2023-06-04T06:13:56.167Z,25.04
2023-06-04T06:14:56.204Z,28.48
2023-06-04T06:15:56.266Z,30.38
2023-06-04T06:16:56.295Z,27.89
2023-06-04T06:17:56.425Z,27.53
2023-06-04T06:18:56.345Z,27.54
2023-06-04T06:19:56.390Z,28.49
2023-06-04T06:20:56.428Z,26.92
2023-06-04T06:21:56.477Z,26.60
2023-06-04T06:22:56.493Z,27.57
2023-06-04T06:23:56.617Z,27.29
2023-06-04T06:24:56.554Z,27.67
2023-06-04T06:25:56.592Z,26.08
2023-06-04T06:26:56.606Z,26.57
2023-06-04T06:27:56.649Z,27.73
2023-06-04T06:28:56.684Z,26.54
2023-06-04T06:29:56.732Z,29.43
2023-06-04T06:30:56.797Z,27.25
2023-06-04T06:31:56.786Z,26.96
2023-06-04T06:32:57.123Z,25.75
2023-06-04T06:33:56.868Z,27.24
2023-06-04T06:34:56.880Z,25.14
2023-06-04T06:35:56.915Z,27.05
2023-06-04T06:36:56.941Z,27.30
2023-06-04T06:37:56.975Z,27.51
2023-06-04T06:38:57.003Z,25.00
2023-06-04T06:39:57.071Z,27.97
2023-06-04T06:40:57.071Z,30.39
2023-06-04T06:41:57.110Z,26.98
2023-06-04T06:42:57.139Z,29.69
2023-06-04T06:43:57.170Z,28.92
2023-06-04T06:44:57.203Z,26.15
2023-06-04T06:45:57.242Z,29.15
2023-06-04T06:46:57.295Z,30.40
2023-06-04T06:47:57.353Z,28.85
2023-06-04T06:48:57.330Z,27.35
2023-06-04T06:49:57.373Z,27.05
2023-06-04T06:50:57.380Z,31.02
2023-06-04T06:51:57.423Z,29.13
2023-06-04T06:52:57.463Z,26.74
2023-06-04T06:53:57.497Z,29.99
2023-06-04T06:54:57.503Z,27.89
2023-06-04T06:55:57.528Z,31.58
2023-06-04T06:56:57.555Z,26.31
2023-06-04T06:57:57.808Z,29.28
2023-06-04T06:58:57.606Z,29.15
2023-06-04T06:59:57.648Z,26.60
2023-06-04T07:00:57.857Z,27.44
2023-06-04T07:01:57.720Z,28.28
2023-06-04T07:02:57.798Z,25.76
2023-06-04T07:03:57.745Z,28.24
2023-06-04T07:04:57.766Z,27.83
2023-06-04T07:05:57.791Z,31.27
2023-06-04T07:06:57.815Z,29.42
2023-06-04T07:07:57.834Z,25.47
2023-06-04T07:08:57.857Z,30.31
2023-06-04T07:09:57.880Z,31.04
2023-06-04T07:10:57.912Z,27.87
2023-06-04T07:11:57.920Z,26.08
2023-06-04T07:12:57.943Z,27.27
2023-06-04T07:13:57.963Z,25.27
2023-06-04T07:14:57.994Z,25.86
2023-06-04T07:15:58.006Z,29.38
2023-06-04T07:16:58.136Z,26.57
2023-06-04T07:17:58.133Z,25.60
2023-06-04T07:18:58.070Z,25.04
2023-06-04T07:19:58.107Z,27.14
2023-06-04T07:20:58.102Z,30.87
2023-06-04T07:21:58.125Z,27.78
2023-06-04T07:22:58.139Z,27.63
2023-06-04T07:23:58.201Z,31.41
2023-06-04T07:24:58.205Z,29.38
2023-06-04T07:25:58.200Z,26.97
2023-06-04T07:26:58.223Z,25.39
2023-06-04T07:27:58.226Z,25.60
2023-06-04T07:28:58.251Z,27.52
2023-06-04T07:29:58.261Z,27.43
2023-06-04T07:30:58.278Z,28.62
2023-06-04T07:31:58.328Z,27.82
2023-06-04T07:32:58.341Z,26.68
2023-06-04T07:33:58.424Z,26.81
2023-06-04T07:34:58.345Z,25.80
2023-06-04T07:35:58.367Z,25.75
2023-06-04T07:36:58.377Z,25.24
2023-06-04T07:37:58.408Z,27.65
2023-06-04T07:38:58.408Z,29.39
2023-06-04T07:39:58.433Z,27.28
2023-06-04T07:40:58.437Z,26.45
2023-06-04T07:41:58.468Z,26.00
2023-06-04T07:42:58.469Z,25.33
2023-06-04T07:43:58.493Z,27.81
2023-06-04T07:44:58.514Z,28.07
2023-06-04T07:45:58.536Z,26.31
2023-06-04T07:46:58.539Z,26.69
2023-06-04T07:47:58.661Z,27.02
2023-06-04T07:48:58.578Z,28.68
2023-06-04T07:50:03.258Z,28.66
2023-06-04T07:50:58.558Z,28.87
2023-06-04T07:51:58.540Z,28.88
2023-06-04T07:52:58.515Z,26.92
2023-06-04T07:53:58.512Z,22.65
2023-06-04T07:55:00.333Z,25.52
2023-06-04T07:55:58.457Z,26.76
2023-06-04T07:56:58.445Z,25.01
2023-06-04T07:57:58.430Z,21.70
2023-06-04T07:58:58.412Z,20.16
2023-06-04T07:59:58.404Z,19.57
2023-06-04T08:00:58.385Z,30.18
2023-06-04T08:01:58.374Z,25.47
2023-06-04T08:02:58.405Z,26.06
2023-06-04T08:03:58.459Z,28.26
2023-06-04T08:04:58.386Z,28.97
2023-06-04T08:05:58.318Z,26.19
2023-06-04T08:06:58.310Z,26.67
2023-06-04T08:07:58.321Z,28.27
2023-06-04T08:08:58.283Z,26.54
2023-06-04T08:09:58.266Z,30.05
2023-06-04T08:10:58.245Z,26.02
2023-06-04T08:11:58.232Z,29.99
2023-06-04T08:12:58.232Z,27.22
2023-06-04T08:13:58.222Z,31.34
2023-06-04T08:14:58.210Z,25.11
2023-06-04T08:15:58.344Z,29.81
2023-06-04T08:16:58.195Z,26.80
2023-06-04T08:17:58.253Z,27.49
2023-06-04T08:18:58.171Z,27.24
2023-06-04T08:19:58.152Z,25.00
2023-06-04T08:20:58.150Z,30.58
2023-06-04T08:21:58.142Z,26.85
2023-06-04T08:22:58.129Z,26.90
2023-06-04T08:23:58.161Z,25.71
2023-06-04T08:24:58.101Z,25.97
2023-06-04T08:25:58.089Z,31.07
2023-06-04T08:26:58.090Z,28.23
2023-06-04T08:27:58.119Z,29.76
2023-06-04T08:28:58.201Z,27.20
2023-06-04T08:29:58.153Z,25.89
2023-06-04T08:30:58.168Z,30.87
2023-06-04T08:31:58.370Z,30.30
2023-06-04T08:32:58.263Z,26.03
2023-06-04T08:33:58.232Z,27.81
2023-06-04T08:34:58.223Z,26.10
2023-06-04T08:35:58.240Z,24.66
2023-06-04T08:36:58.257Z,28.28
2023-06-04T08:37:58.254Z,26.69
2023-06-04T08:38:58.265Z,28.75
2023-06-04T08:39:58.285Z,26.86
2023-06-04T08:40:58.306Z,26.12
2023-06-04T08:41:58.321Z,28.87
2023-06-04T08:42:58.331Z,27.90
2023-06-04T08:44:00.887Z,25.68
2023-06-04T08:44:58.327Z,30.62
2023-06-04T08:45:58.323Z,25.86
2023-06-04T08:46:58.298Z,26.94
2023-06-04T08:47:58.317Z,26.99
2023-06-04T08:48:59.749Z,27.44
2023-06-04T08:49:58.240Z,27.77
2023-06-04T08:50:58.213Z,29.19
2023-06-04T08:51:58.199Z,29.10
2023-06-04T08:52:58.211Z,31.89
2023-06-04T08:53:58.162Z,30.45
2023-06-04T08:54:58.160Z,31.03
2023-06-04T08:55:58.139Z,34.56
2023-06-04T08:56:58.147Z,32.42
2023-06-04T08:57:58.113Z,30.11
2023-06-04T08:58:58.108Z,30.88
2023-06-04T08:59:58.075Z,31.90
2023-06-04T09:00:58.110Z,29.08
2023-06-04T09:01:58.046Z,26.01
2023-06-04T09:02:58.064Z,30.85
2023-06-04T09:03:58.031Z,32.58
2023-06-04T09:04:57.982Z,31.86
2023-06-04T09:05:57.958Z,34.73
2023-06-04T09:06:57.926Z,34.30
2023-06-04T09:07:57.903Z,35.07
2023-06-04T09:08:58.552Z,38.66
2023-06-04T09:10:12.112Z,42.34
2023-06-04T09:10:57.822Z,42.69
2023-06-04T09:11:57.805Z,44.08
2023-06-04T09:12:57.797Z,44.61
2023-06-04T09:13:57.784Z,45.42
2023-06-04T09:14:57.767Z,46.19
2023-06-04T09:15:57.790Z,46.17
2023-06-04T09:16:57.739Z,45.55
2023-06-04T09:17:57.740Z,43.76
2023-06-04T09:18:57.716Z,40.94
2023-06-04T09:19:57.690Z,45.70
2023-06-04T09:20:57.659Z,48.11
2023-06-04T09:21:57.680Z,43.24
2023-06-04T09:22:57.637Z,42.34
2023-06-04T09:23:57.648Z,42.21
2023-06-04T09:24:57.612Z,37.25
2023-06-04T09:25:57.595Z,39.81
2023-06-04T09:26:57.573Z,34.10
2023-06-04T09:27:57.550Z,29.79
2023-06-04T09:28:57.544Z,32.54
2023-06-04T09:29:57.539Z,33.59
2023-06-04T09:30:57.572Z,36.02
2023-06-04T09:31:57.488Z,35.35
2023-06-04T09:32:57.460Z,38.49
2023-06-04T09:33:57.420Z,28.75
2023-06-04T09:34:57.394Z,27.28
2023-06-04T09:35:57.415Z,30.35
2023-06-04T09:36:57.337Z,30.87
2023-06-04T09:37:57.408Z,31.22
2023-06-04T09:38:57.303Z,28.07
2023-06-04T09:39:57.274Z,25.97
2023-06-04T09:40:57.288Z,32.26
2023-06-04T09:41:57.231Z,34.45
2023-06-04T09:42:57.215Z,31.09
2023-06-04T09:43:57.197Z,27.00
2023-06-04T09:44:57.186Z,25.59
2023-06-04T09:45:57.148Z,27.56
2023-06-04T09:46:57.214Z,31.76
2023-06-04T09:47:57.154Z,25.00
2023-06-04T09:48:57.082Z,30.47
2023-06-04T09:49:57.065Z,38.27
2023-06-04T09:50:57.045Z,38.85
2023-06-04T09:51:57.024Z,37.23
2023-06-04T09:52:56.981Z,32.27
2023-06-04T09:53:56.953Z,31.68
2023-06-04T09:54:56.929Z,33.42
2023-06-04T09:55:56.907Z,34.46
2023-06-04T09:56:56.880Z,33.35
2023-06-04T09:57:56.864Z,32.74
2023-06-04T09:58:56.848Z,38.40
2023-06-04T09:59:56.826Z,34.82
2023-06-04T10:00:56.812Z,37.84
2023-06-04T10:01:56.834Z,40.77
2023-06-04T10:02:56.850Z,39.56
2023-06-04T10:03:56.876Z,35.35
2023-06-04T10:04:56.734Z,34.86
2023-06-04T10:05:56.695Z,44.42
2023-06-04T10:06:56.675Z,57.48
2023-06-04T10:07:56.656Z,59.09
2023-06-04T10:08:56.632Z,50.89
2023-06-04T10:09:56.640Z,52.71
2023-06-04T10:10:56.579Z,58.16
2023-06-04T10:11:56.564Z,55.25
2023-06-04T10:12:56.548Z,50.47
2023-06-04T10:13:56.528Z,51.52
2023-06-04T10:14:56.791Z,54.80
2023-06-04T10:15:56.488Z,48.90
2023-06-04T10:16:56.520Z,42.83
2023-06-04T10:17:56.623Z,49.01
2023-06-04T10:18:56.418Z,48.62
2023-06-04T10:19:56.448Z,50.59
2023-06-04T10:20:56.388Z,53.15
2023-06-04T10:21:56.342Z,55.57
2023-06-04T10:22:56.327Z,58.21
2023-06-04T10:23:56.329Z,57.32
2023-06-04T10:24:56.323Z,56.99
2023-06-04T10:25:56.381Z,58.32
2023-06-04T10:26:56.439Z,56.53
2023-06-04T10:27:56.489Z,58.79
2023-06-04T10:28:56.513Z,57.69
2023-06-04T10:29:56.566Z,61.68
2023-06-04T10:30:56.611Z,62.18
2023-06-04T10:31:56.761Z,62.55
2023-06-04T10:32:56.726Z,61.21
2023-06-04T10:33:56.746Z,60.43
2023-06-04T10:34:56.785Z,59.71
2023-06-04T10:35:56.862Z,53.54
2023-06-04T10:36:56.906Z,49.67
2023-06-04T10:37:56.942Z,52.20
2023-06-04T10:38:57.070Z,52.88
2023-06-04T10:39:57.025Z,56.76
2023-06-04T10:40:57.066Z,62.75
2023-06-04T10:41:57.148Z,62.52
2023-06-04T10:42:57.161Z,62.37
2023-06-04T10:43:57.205Z,62.50
2023-06-04T10:44:58.288Z,62.32
2023-06-04T10:45:57.304Z,58.29
2023-06-04T10:46:57.337Z,58.87
2023-06-04T10:47:57.427Z,62.86
2023-06-04T10:48:57.397Z,65.73
2023-06-04T10:49:57.457Z,62.18
2023-06-04T10:50:57.507Z,64.47
2023-06-04T10:51:57.564Z,62.54
2023-06-04T10:52:57.605Z,58.73
2023-06-04T10:53:57.638Z,60.97
2023-06-04T10:54:57.679Z,64.61
2023-06-04T10:55:57.717Z,60.44
2023-06-04T10:56:57.753Z,64.48
2023-06-04T10:57:57.791Z,65.78
2023-06-04T10:58:57.855Z,64.98
2023-06-04T10:59:57.893Z,59.52
2023-06-04T11:00:57.946Z,59.33
2023-06-04T11:01:58.076Z,63.67
2023-06-04T11:02:58.144Z,61.94
2023-06-04T11:03:58.135Z,61.57
2023-06-04T11:04:58.117Z,61.80
2023-06-04T11:05:58.161Z,60.37
2023-06-04T11:06:58.178Z,60.85
2023-06-04T11:07:58.212Z,59.87
2023-06-04T11:08:58.250Z,60.85
2023-06-04T11:09:58.298Z,64.10
2023-06-04T11:10:58.330Z,66.36
2023-06-04T11:11:58.471Z,69.69
2023-06-04T11:12:58.431Z,66.93
2023-06-04T11:13:58.481Z,67.05
2023-06-04T11:14:58.512Z,67.06
2023-06-04T11:15:58.626Z,71.18
2023-06-04T11:16:58.599Z,68.53
2023-06-04T11:17:58.697Z,68.97
2023-06-04T11:18:58.684Z,69.40
2023-06-04T11:19:58.751Z,71.20
2023-06-04T11:20:58.789Z,69.26
2023-06-04T11:21:58.834Z,71.30
2023-06-04T11:22:58.877Z,67.49
2023-06-04T11:23:58.952Z,70.72
2023-06-04T11:24:58.960Z,68.54
2023-06-04T11:25:59.013Z,64.94
2023-06-04T11:27:58.102Z,69.23
2023-06-04T11:28:59.152Z,67.98
2023-06-04T11:29:59.190Z,67.52
2023-06-04T11:30:59.238Z,67.80
2023-06-04T11:31:59.305Z,65.84
2023-06-04T11:32:59.312Z,69.24
2023-06-04T11:33:59.345Z,69.52
2023-06-04T11:34:59.395Z,68.67
2023-06-04T11:35:59.442Z,69.41
2023-06-04T11:36:59.487Z,67.05
2023-06-04T11:37:59.528Z,68.00
2023-06-04T11:38:59.565Z,69.13
2023-06-04T11:39:59.598Z,67.90
2023-06-04T11:40:59.632Z,62.23
2023-06-04T11:41:59.658Z,65.96
2023-06-04T11:42:59.700Z,69.32
2023-06-04T11:43:59.746Z,70.25
2023-06-04T11:44:59.864Z,71.16
2023-06-04T11:45:59.824Z,68.42
2023-06-04T11:46:59.865Z,67.31
2023-06-04T11:47:59.992Z,66.86
2023-06-04T11:49:00.073Z,69.16
2023-06-04T11:50:00.057Z,70.64
2023-06-04T11:51:00.050Z,68.54
2023-06-04T11:52:00.100Z,69.83
2023-06-04T11:53:00.108Z,67.97
2023-06-04T11:54:00.151Z,69.23
2023-06-04T11:55:00.217Z,67.86
2023-06-04T11:56:00.251Z,69.72
2023-06-04T11:57:00.312Z,66.62
2023-06-04T11:58:00.355Z,63.72
2023-06-04T11:59:00.370Z,60.39
2023-06-04T12:00:00.436Z,62.81
2023-06-04T12:01:00.458Z,66.28
2023-06-04T12:02:00.576Z,66.77
2023-06-04T12:03:00.768Z,67.62
2023-06-04T12:04:00.606Z,67.12
2023-06-04T12:05:00.651Z,66.67
2023-06-04T12:06:00.752Z,67.04
2023-06-04T12:07:00.721Z,67.86
2023-06-04T12:08:00.781Z,65.71
2023-06-04T12:09:00.808Z,65.84
2023-06-04T12:10:00.848Z,66.32
2023-06-04T12:11:00.893Z,63.19
2023-06-04T12:12:00.948Z,66.03
2023-06-04T12:13:00.969Z,64.78
2023-06-04T12:14:01.011Z,59.79
2023-06-04T12:15:01.110Z,66.63
2023-06-04T12:16:01.077Z,67.81
2023-06-04T12:17:01.223Z,65.05
2023-06-04T12:18:01.244Z,66.38
2023-06-04T12:19:01.219Z,64.53
2023-06-04T12:20:01.264Z,65.72
2023-06-04T12:21:01.302Z,58.85
2023-06-04T12:22:01.336Z,63.58
2023-06-04T12:23:01.375Z,62.34
2023-06-04T12:24:01.521Z,59.82
2023-06-04T12:25:01.446Z,64.18
2023-06-04T12:26:01.486Z,63.43
2023-06-04T12:27:01.529Z,65.38
2023-06-04T12:28:01.593Z,66.44
2023-06-04T12:29:01.604Z,63.62
2023-06-04T12:30:01.631Z,67.80
2023-06-04T12:31:01.697Z,65.38
2023-06-04T12:32:01.705Z,65.09
2023-06-04T12:33:01.758Z,65.43
2023-06-04T12:34:01.782Z,66.44
2023-06-04T12:35:01.818Z,66.19
2023-06-04T12:36:01.921Z,65.58
2023-06-04T12:37:01.898Z,65.55
2023-06-04T12:38:01.946Z,63.73
2023-06-04T12:39:01.984Z,61.84
2023-06-04T12:40:02.035Z,63.99
2023-06-04T12:41:02.077Z,60.25
2023-06-04T12:42:02.132Z,62.49
2023-06-04T12:43:02.168Z,65.06
2023-06-04T12:44:02.189Z,67.05
2023-06-04T12:45:02.242Z,64.86
2023-06-04T12:46:02.276Z,65.49
2023-06-04T12:47:02.513Z,66.96
2023-06-04T12:48:02.394Z,61.05
2023-06-04T12:49:02.403Z,63.01
2023-06-04T12:50:02.426Z,66.36
2023-06-04T12:51:02.472Z,67.12
2023-06-04T12:52:02.504Z,68.53
2023-06-04T12:53:02.541Z,64.54
2023-06-04T12:54:02.583Z,66.24